• Join FlightAware (Why Join?)
  • Login
  • US Flag 
11:03AM EDT


 

Airport Tracker/Info


-or-


 

Live Flight TrackerFlight Track Log ✈ KAP528 ✈ 07-May-2013 ✈ KOGS - KALB

Flight Track Log - Related Links

Times and Time Zones

All times are in EDT time to prevent confusion due to time zone crossing. See the KAP528 flight status page for this flight to view local times or setup timezone preferences in your user account.

Time Position Orientation Groundspeed Altitude Reporting Facility
EDT Latitude Longitude Course Direction KTS MPH feet Rate Location/Type
01:07PM 44.6056 -75.3589 155° Southeast 154 177 4,600  Level Boston Center
01:08PM 44.5753 -75.3253 142° Southeast 149 171 5,800 1,380 Climbing Boston Center
01:09PM 44.5511 -75.2864 131° Southeast 143 165 7,400 1,380 Climbing Boston Center
01:10PM 44.5206 -75.2586 147° Southeast 138 159 8,600 960 Climbing Boston Center
01:11PM 44.4881 -75.2308 149° Southeast 133 153 9,400 720 Climbing Boston Center
01:12PM 44.7833 -75.1002 68° East  Level FlightAware Approximate
01:12PM 44.4533 -75.2000 148° Southeast 133 153 10,100  Level Boston Center
01:13PM 44.7477 -75.0767 155° Southeast  Level Estimated
01:13PM 44.4206 -75.1725 149° Southeast 138 159 10,800  Level Boston Center
01:14PM 44.3858 -75.1389 145° Southeast 143 165 11,400 360 Climbing Boston Center
01:15PM 44.3472 -75.1053 148° Southeast 148 170 11,600 60 Climbing Boston Center
01:16PM 44.3064 -75.0686 147° Southeast 167 192 11,600  Level Boston Center
01:17PM 44.2636 -75.0261 145° Southeast 178 205 11,600  Level Boston Center
01:18PM 44.2206 -74.9894 149° Southeast 183 211 11,600  Level Boston Center
01:19PM 44.1778 -74.9500 147° Southeast 183 211 11,600  Level Boston Center
01:20PM 44.1347 -74.9106 147° Southeast 183 211 11,600  Level Boston Center
01:21PM 44.0897 -74.8739 150° Southeast 183 211 11,600  Level Boston Center
01:22PM 44.0489 -74.8375 147° Southeast 183 211 11,600  Level Boston Center
01:23PM 44.0017 -74.8011 151° Southeast 183 211 11,600  Level Boston Center
01:24PM 43.9586 -74.7647 149° Southeast 183 211 11,600  Level Boston Center
01:25PM 43.9156 -74.7286 149° Southeast 178 205 11,600  Level Boston Center
01:26PM 43.8706 -74.6922 150° Southeast 178 205 11,600  Level Boston Center
01:27PM 43.8294 -74.6533 146° Southeast 178 205 11,600  Level Boston Center
01:28PM 43.7822 -74.6228 155° Southeast 178 205 11,600  Level Boston Center
01:29PM 43.7347 -74.5981 159° South 178 205 11,600  Level Boston Center
01:30PM 43.6894 -74.5706 156° South 178 205 11,600  Level Boston Center
01:31PM 43.6442 -74.5344 150° Southeast 178 205 11,600 -240 Level Boston Center
01:32PM 43.6011 -74.5014 151° Southeast 178 205 11,200 -360 Descending Boston Center
01:33PM 43.5581 -74.4600 145° Southeast 178 205 10,900 -360 Descending Boston Center
01:34PM 43.5192 -74.4186 142° Southeast 183 211 10,500 -420 Descending Boston Center
01:35PM 43.4761 -74.3800 147° Southeast 183 211 10,100 -360 Descending Boston Center
01:36PM 43.4350 -74.3414 146° Southeast 188 216 9,800 -360 Descending Boston Center
01:37PM 43.4225 -74.3353 160° South 180 207 9,700 -420 Descending Boston Center
01:37PM 43.3897 -74.3086 149° Southeast 188 216 9,400 -420 Descending Boston Center
01:38PM 43.3464 -74.2817 156° South 183 211 9,000 -480 Descending Boston Center
01:39PM 43.3011 -74.2403 146° Southeast 178 205 8,500 -480 Descending Boston Center
01:40PM 43.2578 -74.2106 153° Southeast 181 208 8,100 -420 Descending Boston Center
01:40PM 43.2578 -74.2106 153° Southeast 178 205 8,100 -480 Level Boston Center
01:41PM 43.2167 -74.1808 152° Southeast 179 206 7,700 -420 Descending Boston Center
01:42PM 43.1733 -74.1483 151° Southeast 175 201 7,300 -360 Descending Boston Center
01:43PM 43.1322 -74.1131 148° Southeast 170 196 7,000 -360 Descending Boston Center
01:44PM 43.0889 -74.0806 151° Southeast 178 205 6,600 -360 Descending Boston Center
01:45PM 43.0539 -74.0539 151° Southeast 178 205 6,300 -480 Descending Boston Center
01:46PM 43.0064 -74.0217 154° Southeast 185 213 5,800 -420 Descending Boston Center
01:47PM 42.9522 -74.0117 172° South 172 198 5,500 -420 Descending Boston Center
01:48PM 42.9147 -74.0219 191° South 164 189 5,000 -660 Descending Boston Center
01:49PM 42.8686 -74.0322 189° South 162 186 4,200 -720 Descending Boston Center
01:50PM 42.8375 -74.0200 164° South 125 144 3,600 -360 Descending Boston Center
01:51PM 42.8089 -73.9881 141° Southeast 125 144 3,600 -240 Level Boston Center
01:52PM 42.7781 -73.9564 143° Southeast 145 167 3,200 -360 Descending Boston Center
01:53PM 42.7408 -73.9328 155° Southeast 152 175 2,900 -420 Descending Boston Center
01:54PM 42.7161 -73.8953 132° Southeast 134 154 2,400 -600 Descending Boston Center
01:55PM 42.7128 -73.8444 95° East 117 135 1,700 -840 Descending Boston Center
01:56PM 42.7236 -73.8081 68° East 120 138 800 -900 Descending Boston Center
01:58PM 42.7491 -73.8020 31° Northeast  Level Estimated
02:05PM 42.7491 -73.8020 160° South  Level Estimated
02:06PM 42.7491 -73.8020 160° South  Level Estimated
02:07PM 42.7491 -73.8020 160° South  Level Estimated
02:08PM 42.7491 -73.8020 160° South  Level Estimated